sensor_id;sensor_type;location;lat;lon;timestamp;P1;durP1;ratioP1;P2;durP2;ratioP2
83895;SDS011;74045;42.812;74.638;2024-03-02T00:00:50;193.95;;;51.28;;
83895;SDS011;74045;42.812;74.638;2024-03-02T00:03:16;186.25;;;52.35;;
83895;SDS011;74045;42.812;74.638;2024-03-02T00:05:43;195.20;;;51.63;;
83895;SDS011;74045;42.812;74.638;2024-03-02T00:08:09;183.32;;;52.85;;
83895;SDS011;74045;42.812;74.638;2024-03-02T00:10:38;193.90;;;54.10;;
83895;SDS011;74045;42.812;74.638;2024-03-02T00:13:08;167.70;;;49.20;;
83895;SDS011;74045;42.812;74.638;2024-03-02T00:18:20;190.43;;;53.58;;
83895;SDS011;74045;42.812;74.638;2024-03-02T00:20:49;182.80;;;51.83;;
83895;SDS011;74045;42.812;74.638;2024-03-02T00:23:19;177.32;;;46.55;;
83895;SDS011;74045;42.812;74.638;2024-03-02T00:25:47;153.40;;;43.58;;
83895;SDS011;74045;42.812;74.638;2024-03-02T00:30:55;157.23;;;45.20;;
83895;SDS011;74045;42.812;74.638;2024-03-02T00:33:28;190.18;;;57.83;;
83895;SDS011;74045;42.812;74.638;2024-03-02T00:35:57;196.40;;;56.70;;
83895;SDS011;74045;42.812;74.638;2024-03-02T00:38:23;211.25;;;57.72;;
83895;SDS011;74045;42.812;74.638;2024-03-02T00:40:49;185.63;;;52.67;;
83895;SDS011;74045;42.812;74.638;2024-03-02T00:46:19;182.55;;;52.92;;
83895;SDS011;74045;42.812;74.638;2024-03-02T00:48:52;140.00;;;40.22;;
83895;SDS011;74045;42.812;74.638;2024-03-02T00:51:20;155.13;;;45.67;;
83895;SDS011;74045;42.812;74.638;2024-03-02T00:53:47;128.77;;;42.45;;
83895;SDS011;74045;42.812;74.638;2024-03-02T00:56:13;167.15;;;47.30;;
83895;SDS011;74045;42.812;74.638;2024-03-02T00:58:39;139.10;;;44.40;;
83895;SDS011;74045;42.812;74.638;2024-03-02T01:01:05;153.15;;;44.88;;
83895;SDS011;74045;42.812;74.638;2024-03-02T01:03:32;149.32;;;45.83;;
83895;SDS011;74045;42.812;74.638;2024-03-02T01:05:59;146.07;;;44.20;;
83895;SDS011;74045;42.812;74.638;2024-03-02T01:08:25;150.77;;;45.58;;
83895;SDS011;74045;42.812;74.638;2024-03-02T01:10:51;140.80;;;42.22;;
83895;SDS011;74045;42.812;74.638;2024-03-02T01:13:17;166.07;;;46.25;;
83895;SDS011;74045;42.812;74.638;2024-03-02T01:15:43;137.63;;;40.17;;
83895;SDS011;74045;42.812;74.638;2024-03-02T01:18:09;159.77;;;45.17;;
83895;SDS011;74045;42.812;74.638;2024-03-02T01:20:34;144.35;;;44.30;;
83895;SDS011;74045;42.812;74.638;2024-03-02T01:23:00;153.45;;;45.47;;
83895;SDS011;74045;42.812;74.638;2024-03-02T01:25:26;161.07;;;46.60;;
83895;SDS011;74045;42.812;74.638;2024-03-02T01:27:52;148.50;;;41.47;;
83895;SDS011;74045;42.812;74.638;2024-03-02T01:30:17;177.40;;;49.22;;
83895;SDS011;74045;42.812;74.638;2024-03-02T01:32:43;170.73;;;50.28;;
83895;SDS011;74045;42.812;74.638;2024-03-02T01:35:12;154.82;;;46.58;;
83895;SDS011;74045;42.812;74.638;2024-03-02T01:37:40;147.02;;;43.67;;
83895;SDS011;74045;42.812;74.638;2024-03-02T01:40:06;164.50;;;46.00;;
83895;SDS011;74045;42.812;74.638;2024-03-02T01:42:37;139.45;;;38.80;;
83895;SDS011;74045;42.812;74.638;2024-03-02T01:45:07;121.72;;;37.72;;
83895;SDS011;74045;42.812;74.638;2024-03-02T01:47:34;133.15;;;38.45;;
83895;SDS011;74045;42.812;74.638;2024-03-02T01:50:00;133.25;;;38.28;;
83895;SDS011;74045;42.812;74.638;2024-03-02T01:52:27;119.80;;;36.15;;
83895;SDS011;74045;42.812;74.638;2024-03-02T01:54:53;146.20;;;38.13;;
83895;SDS011;74045;42.812;74.638;2024-03-02T01:57:18;116.60;;;33.03;;
83895;SDS011;74045;42.812;74.638;2024-03-02T01:59:45;108.85;;;33.63;;
83895;SDS011;74045;42.812;74.638;2024-03-02T02:02:13;116.32;;;33.67;;
83895;SDS011;74045;42.812;74.638;2024-03-02T02:04:39;114.88;;;34.88;;
83895;SDS011;74045;42.812;74.638;2024-03-02T02:07:05;121.40;;;34.78;;
83895;SDS011;74045;42.812;74.638;2024-03-02T02:09:32;111.20;;;35.80;;
83895;SDS011;74045;42.812;74.638;2024-03-02T02:11:57;112.88;;;34.40;;
83895;SDS011;74045;42.812;74.638;2024-03-02T02:14:24;110.85;;;33.47;;
83895;SDS011;74045;42.812;74.638;2024-03-02T02:16:50;106.22;;;33.67;;
83895;SDS011;74045;42.812;74.638;2024-03-02T02:19:17;101.10;;;35.58;;
83895;SDS011;74045;42.812;74.638;2024-03-02T02:21:43;120.13;;;33.15;;
83895;SDS011;74045;42.812;74.638;2024-03-02T02:24:09;130.60;;;37.72;;
83895;SDS011;74045;42.812;74.638;2024-03-02T02:26:34;113.05;;;31.42;;
83895;SDS011;74045;42.812;74.638;2024-03-02T02:29:00;111.25;;;32.78;;
83895;SDS011;74045;42.812;74.638;2024-03-02T02:31:26;100.72;;;30.50;;
83895;SDS011;74045;42.812;74.638;2024-03-02T02:33:52;90.35;;;28.58;;
83895;SDS011;74045;42.812;74.638;2024-03-02T02:36:18;86.72;;;28.60;;
83895;SDS011;74045;42.812;74.638;2024-03-02T02:38:44;92.75;;;30.33;;
83895;SDS011;74045;42.812;74.638;2024-03-02T02:41:12;107.20;;;32.30;;
83895;SDS011;74045;42.812;74.638;2024-03-02T02:43:38;108.80;;;34.92;;
83895;SDS011;74045;42.812;74.638;2024-03-02T02:46:05;107.88;;;34.70;;
83895;SDS011;74045;42.812;74.638;2024-03-02T02:48:31;102.07;;;33.17;;
83895;SDS011;74045;42.812;74.638;2024-03-02T02:50:56;82.63;;;29.80;;
83895;SDS011;74045;42.812;74.638;2024-03-02T02:53:22;100.90;;;30.63;;
83895;SDS011;74045;42.812;74.638;2024-03-02T02:55:48;83.47;;;26.90;;
83895;SDS011;74045;42.812;74.638;2024-03-02T02:58:13;94.40;;;29.23;;
83895;SDS011;74045;42.812;74.638;2024-03-02T03:00:39;88.85;;;28.15;;
83895;SDS011;74045;42.812;74.638;2024-03-02T03:03:05;80.50;;;26.35;;
83895;SDS011;74045;42.812;74.638;2024-03-02T03:05:31;80.18;;;29.65;;
83895;SDS011;74045;42.812;74.638;2024-03-02T03:07:57;87.70;;;28.98;;
83895;SDS011;74045;42.812;74.638;2024-03-02T03:10:22;98.28;;;30.90;;
83895;SDS011;74045;42.812;74.638;2024-03-02T03:12:51;90.70;;;30.48;;
83895;SDS011;74045;42.812;74.638;2024-03-02T03:15:16;88.03;;;30.88;;
83895;SDS011;74045;42.812;74.638;2024-03-02T03:17:42;95.97;;;32.88;;
83895;SDS011;74045;42.812;74.638;2024-03-02T03:20:08;95.57;;;32.42;;
83895;SDS011;74045;42.812;74.638;2024-03-02T03:22:40;108.75;;;34.13;;
83895;SDS011;74045;42.812;74.638;2024-03-02T03:25:07;100.97;;;33.72;;
83895;SDS011;74045;42.812;74.638;2024-03-02T03:27:36;98.10;;;34.55;;
83895;SDS011;74045;42.812;74.638;2024-03-02T03:30:01;109.28;;;33.80;;
83895;SDS011;74045;42.812;74.638;2024-03-02T03:32:28;96.78;;;32.70;;
83895;SDS011;74045;42.812;74.638;2024-03-02T03:34:54;111.45;;;39.92;;
83895;SDS011;74045;42.812;74.638;2024-03-02T03:37:19;130.77;;;42.08;;
83895;SDS011;74045;42.812;74.638;2024-03-02T03:39:45;127.90;;;44.72;;
83895;SDS011;74045;42.812;74.638;2024-03-02T03:42:11;111.00;;;41.72;;
83895;SDS011;74045;42.812;74.638;2024-03-02T03:44:37;116.47;;;40.22;;
83895;SDS011;74045;42.812;74.638;2024-03-02T03:47:05;88.50;;;33.20;;
83895;SDS011;74045;42.812;74.638;2024-03-02T03:49:33;76.65;;;28.13;;
83895;SDS011;74045;42.812;74.638;2024-03-02T03:52:00;97.20;;;31.35;;
83895;SDS011;74045;42.812;74.638;2024-03-02T03:54:28;93.03;;;26.27;;
83895;SDS011;74045;42.812;74.638;2024-03-02T03:56:54;73.88;;;25.85;;
83895;SDS011;74045;42.812;74.638;2024-03-02T03:59:19;83.25;;;25.90;;
83895;SDS011;74045;42.812;74.638;2024-03-02T04:01:45;59.58;;;20.13;;
83895;SDS011;74045;42.812;74.638;2024-03-02T04:04:11;45.33;;;18.48;;
83895;SDS011;74045;42.812;74.638;2024-03-02T04:06:37;57.35;;;19.15;;
83895;SDS011;74045;42.812;74.638;2024-03-02T04:09:02;74.40;;;24.73;;
83895;SDS011;74045;42.812;74.638;2024-03-02T04:11:29;83.35;;;25.17;;
83895;SDS011;74045;42.812;74.638;2024-03-02T04:13:58;60.03;;;21.75;;
83895;SDS011;74045;42.812;74.638;2024-03-02T04:16:24;50.70;;;18.67;;
83895;SDS011;74045;42.812;74.638;2024-03-02T04:18:50;53.10;;;20.55;;
83895;SDS011;74045;42.812;74.638;2024-03-02T04:21:16;58.00;;;20.38;;
83895;SDS011;74045;42.812;74.638;2024-03-02T04:23:41;52.70;;;18.67;;
83895;SDS011;74045;42.812;74.638;2024-03-02T04:26:07;53.85;;;20.92;;
83895;SDS011;74045;42.812;74.638;2024-03-02T04:28:33;52.88;;;19.58;;
83895;SDS011;74045;42.812;74.638;2024-03-02T04:30:58;57.40;;;20.30;;
83895;SDS011;74045;42.812;74.638;2024-03-02T04:33:24;64.28;;;20.83;;
83895;SDS011;74045;42.812;74.638;2024-03-02T04:35:50;56.10;;;21.27;;
83895;SDS011;74045;42.812;74.638;2024-03-02T04:38:16;79.55;;;25.20;;
83895;SDS011;74045;42.812;74.638;2024-03-02T04:40:41;65.57;;;24.20;;
83895;SDS011;74045;42.812;74.638;2024-03-02T04:43:07;69.43;;;24.25;;
83895;SDS011;74045;42.812;74.638;2024-03-02T04:45:34;73.25;;;23.40;;
83895;SDS011;74045;42.812;74.638;2024-03-02T04:48:01;55.03;;;19.23;;
83895;SDS011;74045;42.812;74.638;2024-03-02T04:50:27;76.18;;;24.20;;
83895;SDS011;74045;42.812;74.638;2024-03-02T04:52:52;53.33;;;19.75;;
83895;SDS011;74045;42.812;74.638;2024-03-02T04:55:18;46.97;;;17.50;;
83895;SDS011;74045;42.812;74.638;2024-03-02T04:57:44;40.28;;;14.70;;
83895;SDS011;74045;42.812;74.638;2024-03-02T05:00:10;46.20;;;16.40;;
83895;SDS011;74045;42.812;74.638;2024-03-02T05:02:36;44.15;;;14.98;;
83895;SDS011;74045;42.812;74.638;2024-03-02T05:05:01;47.50;;;16.48;;
83895;SDS011;74045;42.812;74.638;2024-03-02T05:07:28;46.42;;;14.93;;
83895;SDS011;74045;42.812;74.638;2024-03-02T05:09:53;39.42;;;15.73;;
83895;SDS011;74045;42.812;74.638;2024-03-02T05:12:19;45.88;;;15.75;;
83895;SDS011;74045;42.812;74.638;2024-03-02T05:14:48;50.90;;;17.02;;
83895;SDS011;74045;42.812;74.638;2024-03-02T05:17:13;43.95;;;16.95;;
83895;SDS011;74045;42.812;74.638;2024-03-02T05:19:39;44.33;;;17.52;;
83895;SDS011;74045;42.812;74.638;2024-03-02T05:22:05;52.85;;;17.25;;
83895;SDS011;74045;42.812;74.638;2024-03-02T05:24:30;43.42;;;16.92;;
83895;SDS011;74045;42.812;74.638;2024-03-02T05:26:56;54.75;;;19.15;;
83895;SDS011;74045;42.812;74.638;2024-03-02T05:29:22;53.55;;;23.05;;
83895;SDS011;74045;42.812;74.638;2024-03-02T05:31:48;58.38;;;22.90;;
83895;SDS011;74045;42.812;74.638;2024-03-02T05:34:14;48.65;;;17.05;;
83895;SDS011;74045;42.812;74.638;2024-03-02T05:36:39;48.80;;;19.77;;
83895;SDS011;74045;42.812;74.638;2024-03-02T05:39:05;55.25;;;18.63;;
83895;SDS011;74045;42.812;74.638;2024-03-02T05:41:34;44.17;;;18.73;;
83895;SDS011;74045;42.812;74.638;2024-03-02T05:44:00;45.55;;;18.55;;
83895;SDS011;74045;42.812;74.638;2024-03-02T05:46:26;50.72;;;19.38;;
83895;SDS011;74045;42.812;74.638;2024-03-02T05:48:52;56.40;;;19.75;;
83895;SDS011;74045;42.812;74.638;2024-03-02T05:51:18;51.88;;;19.90;;
83895;SDS011;74045;42.812;74.638;2024-03-02T05:53:44;56.78;;;20.60;;
83895;SDS011;74045;42.812;74.638;2024-03-02T05:56:10;51.03;;;19.40;;
83895;SDS011;74045;42.812;74.638;2024-03-02T05:58:37;54.88;;;20.50;;
83895;SDS011;74045;42.812;74.638;2024-03-02T06:01:21;55.38;;;20.23;;
83895;SDS011;74045;42.812;74.638;2024-03-02T06:03:53;60.38;;;20.70;;
83895;SDS011;74045;42.812;74.638;2024-03-02T06:06:22;51.25;;;21.13;;
83895;SDS011;74045;42.812;74.638;2024-03-02T06:08:48;58.67;;;20.73;;
83895;SDS011;74045;42.812;74.638;2024-03-02T06:11:14;51.40;;;18.67;;
83895;SDS011;74045;42.812;74.638;2024-03-02T06:13:39;55.15;;;19.80;;
83895;SDS011;74045;42.812;74.638;2024-03-02T06:16:05;54.78;;;19.80;;
83895;SDS011;74045;42.812;74.638;2024-03-02T06:18:31;46.20;;;18.92;;
83895;SDS011;74045;42.812;74.638;2024-03-02T06:20:57;55.83;;;19.77;;
83895;SDS011;74045;42.812;74.638;2024-03-02T06:23:22;47.58;;;20.30;;
83895;SDS011;74045;42.812;74.638;2024-03-02T06:25:48;52.47;;;19.20;;
83895;SDS011;74045;42.812;74.638;2024-03-02T06:28:14;61.40;;;22.30;;
83895;SDS011;74045;42.812;74.638;2024-03-02T06:30:41;49.63;;;19.38;;
83895;SDS011;74045;42.812;74.638;2024-03-02T06:33:08;54.67;;;18.70;;
83895;SDS011;74045;42.812;74.638;2024-03-02T06:35:34;49.13;;;18.60;;
83895;SDS011;74045;42.812;74.638;2024-03-02T06:38:00;53.65;;;20.55;;
83895;SDS011;74045;42.812;74.638;2024-03-02T06:40:26;54.00;;;21.08;;
83895;SDS011;74045;42.812;74.638;2024-03-02T06:42:52;51.65;;;19.05;;
83895;SDS011;74045;42.812;74.638;2024-03-02T06:45:18;49.75;;;20.13;;
83895;SDS011;74045;42.812;74.638;2024-03-02T06:47:44;52.45;;;19.70;;
83895;SDS011;74045;42.812;74.638;2024-03-02T06:50:09;52.50;;;19.52;;
83895;SDS011;74045;42.812;74.638;2024-03-02T06:52:35;58.42;;;20.52;;
83895;SDS011;74045;42.812;74.638;2024-03-02T06:55:01;50.17;;;19.88;;
83895;SDS011;74045;42.812;74.638;2024-03-02T06:57:29;49.40;;;18.17;;
83895;SDS011;74045;42.812;74.638;2024-03-02T06:59:55;53.70;;;19.70;;
83895;SDS011;74045;42.812;74.638;2024-03-02T07:02:26;47.83;;;20.35;;
83895;SDS011;74045;42.812;74.638;2024-03-02T07:04:54;50.72;;;18.73;;
83895;SDS011;74045;42.812;74.638;2024-03-02T07:07:20;60.17;;;20.65;;
83895;SDS011;74045;42.812;74.638;2024-03-02T07:09:46;59.92;;;22.77;;
83895;SDS011;74045;42.812;74.638;2024-03-02T07:12:13;51.67;;;20.25;;
83895;SDS011;74045;42.812;74.638;2024-03-02T07:14:38;52.55;;;21.70;;
83895;SDS011;74045;42.812;74.638;2024-03-02T07:17:42;58.92;;;21.35;;
83895;SDS011;74045;42.812;74.638;2024-03-02T07:20:08;53.33;;;20.27;;
83895;SDS011;74045;42.812;74.638;2024-03-02T07:22:34;60.13;;;21.38;;
83895;SDS011;74045;42.812;74.638;2024-03-02T07:25:00;60.67;;;23.45;;
83895;SDS011;74045;42.812;74.638;2024-03-02T07:27:25;59.20;;;21.55;;
83895;SDS011;74045;42.812;74.638;2024-03-02T07:29:51;56.30;;;20.88;;
83895;SDS011;74045;42.812;74.638;2024-03-02T07:32:17;60.97;;;23.35;;
83895;SDS011;74045;42.812;74.638;2024-03-02T07:34:43;61.17;;;23.73;;
83895;SDS011;74045;42.812;74.638;2024-03-02T07:37:08;63.30;;;24.40;;
83895;SDS011;74045;42.812;74.638;2024-03-02T07:39:35;66.68;;;26.00;;
83895;SDS011;74045;42.812;74.638;2024-03-02T07:42:00;62.97;;;23.33;;
83895;SDS011;74045;42.812;74.638;2024-03-02T07:44:26;54.08;;;21.00;;
83895;SDS011;74045;42.812;74.638;2024-03-02T07:46:52;57.63;;;19.90;;
83895;SDS011;74045;42.812;74.638;2024-03-02T07:49:18;56.15;;;20.77;;
83895;SDS011;74045;42.812;74.638;2024-03-02T07:51:44;60.75;;;22.15;;
83895;SDS011;74045;42.812;74.638;2024-03-02T07:54:10;54.22;;;20.60;;
83895;SDS011;74045;42.812;74.638;2024-03-02T07:56:36;58.63;;;21.63;;
83895;SDS011;74045;42.812;74.638;2024-03-02T07:59:02;54.35;;;21.65;;
83895;SDS011;74045;42.812;74.638;2024-03-02T08:01:28;55.20;;;21.67;;
83895;SDS011;74045;42.812;74.638;2024-03-02T08:03:58;55.85;;;23.10;;
83895;SDS011;74045;42.812;74.638;2024-03-02T08:06:25;60.75;;;23.45;;
83895;SDS011;74045;42.812;74.638;2024-03-02T08:08:59;61.72;;;22.63;;
83895;SDS011;74045;42.812;74.638;2024-03-02T08:11:26;51.67;;;20.73;;
83895;SDS011;74045;42.812;74.638;2024-03-02T08:13:52;57.10;;;23.08;;
83895;SDS011;74045;42.812;74.638;2024-03-02T08:16:20;52.00;;;21.20;;
83895;SDS011;74045;42.812;74.638;2024-03-02T08:18:50;49.70;;;20.08;;
83895;SDS011;74045;42.812;74.638;2024-03-02T08:21:17;46.45;;;20.35;;
83895;SDS011;74045;42.812;74.638;2024-03-02T08:23:43;54.90;;;21.50;;
83895;SDS011;74045;42.812;74.638;2024-03-02T08:26:09;55.60;;;19.85;;
83895;SDS011;74045;42.812;74.638;2024-03-02T08:28:35;49.83;;;19.80;;
83895;SDS011;74045;42.812;74.638;2024-03-02T08:31:02;50.03;;;20.00;;
83895;SDS011;74045;42.812;74.638;2024-03-02T08:33:28;52.65;;;21.40;;
83895;SDS011;74045;42.812;74.638;2024-03-02T08:35:55;56.60;;;20.27;;
83895;SDS011;74045;42.812;74.638;2024-03-02T08:38:21;51.30;;;19.25;;
83895;SDS011;74045;42.812;74.638;2024-03-02T08:40:46;56.88;;;22.35;;
83895;SDS011;74045;42.812;74.638;2024-03-02T08:43:12;59.35;;;19.48;;
83895;SDS011;74045;42.812;74.638;2024-03-02T08:45:39;54.35;;;21.23;;
83895;SDS011;74045;42.812;74.638;2024-03-02T08:48:06;57.90;;;22.27;;
83895;SDS011;74045;42.812;74.638;2024-03-02T08:50:36;68.10;;;24.50;;
83895;SDS011;74045;42.812;74.638;2024-03-02T08:53:03;55.53;;;20.80;;
83895;SDS011;74045;42.812;74.638;2024-03-02T08:55:29;52.70;;;21.42;;
83895;SDS011;74045;42.812;74.638;2024-03-02T08:57:55;62.65;;;23.83;;
83895;SDS011;74045;42.812;74.638;2024-03-02T09:00:21;72.40;;;25.48;;
83895;SDS011;74045;42.812;74.638;2024-03-02T09:02:48;56.88;;;23.13;;
83895;SDS011;74045;42.812;74.638;2024-03-02T09:05:13;57.70;;;23.00;;
83895;SDS011;74045;42.812;74.638;2024-03-02T09:07:39;50.63;;;19.77;;
83895;SDS011;74045;42.812;74.638;2024-03-02T09:10:05;52.28;;;20.25;;
83895;SDS011;74045;42.812;74.638;2024-03-02T09:12:32;51.30;;;19.60;;
83895;SDS011;74045;42.812;74.638;2024-03-02T09:14:58;52.72;;;19.52;;
83895;SDS011;74045;42.812;74.638;2024-03-02T09:17:25;49.78;;;19.02;;
83895;SDS011;74045;42.812;74.638;2024-03-02T09:19:51;62.05;;;24.35;;
83895;SDS011;74045;42.812;74.638;2024-03-02T09:22:18;55.60;;;22.05;;
83895;SDS011;74045;42.812;74.638;2024-03-02T09:24:44;56.13;;;21.08;;
83895;SDS011;74045;42.812;74.638;2024-03-02T09:27:10;52.85;;;19.67;;
83895;SDS011;74045;42.812;74.638;2024-03-02T09:29:36;48.88;;;21.20;;
83895;SDS011;74045;42.812;74.638;2024-03-02T09:32:02;53.05;;;21.40;;
83895;SDS011;74045;42.812;74.638;2024-03-02T09:34:28;58.03;;;21.23;;
83895;SDS011;74045;42.812;74.638;2024-03-02T09:36:54;48.70;;;19.42;;
83895;SDS011;74045;42.812;74.638;2024-03-02T09:39:19;45.15;;;18.05;;
83895;SDS011;74045;42.812;74.638;2024-03-02T09:41:45;45.13;;;18.65;;
83895;SDS011;74045;42.812;74.638;2024-03-02T09:44:12;39.92;;;16.25;;
83895;SDS011;74045;42.812;74.638;2024-03-02T09:46:39;42.75;;;17.70;;
83895;SDS011;74045;42.812;74.638;2024-03-02T09:49:04;56.40;;;23.58;;
83895;SDS011;74045;42.812;74.638;2024-03-02T09:51:31;47.40;;;19.40;;
83895;SDS011;74045;42.812;74.638;2024-03-02T09:53:57;53.00;;;21.10;;
83895;SDS011;74045;42.812;74.638;2024-03-02T09:56:22;47.35;;;19.35;;
83895;SDS011;74045;42.812;74.638;2024-03-02T09:58:48;57.97;;;22.20;;
83895;SDS011;74045;42.812;74.638;2024-03-02T10:01:14;67.22;;;24.58;;
83895;SDS011;74045;42.812;74.638;2024-03-02T10:03:40;59.58;;;23.58;;
83895;SDS011;74045;42.812;74.638;2024-03-02T10:08:50;67.10;;;25.65;;
83895;SDS011;74045;42.812;74.638;2024-03-02T10:11:26;84.80;;;32.67;;
83895;SDS011;74045;42.812;74.638;2024-03-02T10:14:09;73.15;;;28.05;;
83895;SDS011;74045;42.812;74.638;2024-03-02T10:16:42;79.00;;;28.00;;
83895;SDS011;74045;42.812;74.638;2024-03-02T10:19:15;66.10;;;24.17;;
83895;SDS011;74045;42.812;74.638;2024-03-02T10:21:48;62.75;;;24.50;;
83895;SDS011;74045;42.812;74.638;2024-03-02T10:24:15;71.10;;;25.17;;
83895;SDS011;74045;42.812;74.638;2024-03-02T10:26:41;57.05;;;23.85;;
83895;SDS011;74045;42.812;74.638;2024-03-02T10:29:09;49.78;;;18.63;;
83895;SDS011;74045;42.812;74.638;2024-03-02T10:31:38;59.75;;;23.33;;
83895;SDS011;74045;42.812;74.638;2024-03-02T10:34:09;53.65;;;20.83;;
83895;SDS011;74045;42.812;74.638;2024-03-02T10:36:38;57.80;;;20.75;;
83895;SDS011;74045;42.812;74.638;2024-03-02T10:39:07;59.00;;;21.88;;
83895;SDS011;74045;42.812;74.638;2024-03-02T10:41:34;60.72;;;22.85;;
83895;SDS011;74045;42.812;74.638;2024-03-02T10:44:02;61.67;;;23.52;;
83895;SDS011;74045;42.812;74.638;2024-03-02T10:46:29;66.38;;;24.55;;
83895;SDS011;74045;42.812;74.638;2024-03-02T10:48:56;59.55;;;24.60;;
83895;SDS011;74045;42.812;74.638;2024-03-02T10:51:27;59.75;;;21.88;;
83895;SDS011;74045;42.812;74.638;2024-03-02T10:53:57;67.40;;;25.73;;
83895;SDS011;74045;42.812;74.638;2024-03-02T10:56:39;60.47;;;23.55;;
83895;SDS011;74045;42.812;74.638;2024-03-02T10:59:26;58.03;;;23.08;;
83895;SDS011;74045;42.812;74.638;2024-03-02T11:01:57;64.07;;;22.05;;
83895;SDS011;74045;42.812;74.638;2024-03-02T11:04:28;51.33;;;20.85;;
83895;SDS011;74045;42.812;74.638;2024-03-02T11:07:05;46.92;;;18.85;;
83895;SDS011;74045;42.812;74.638;2024-03-02T11:09:37;50.85;;;17.65;;
83895;SDS011;74045;42.812;74.638;2024-03-02T11:14:41;44.80;;;17.55;;
83895;SDS011;74045;42.812;74.638;2024-03-02T11:17:11;43.25;;;16.77;;
83895;SDS011;74045;42.812;74.638;2024-03-02T11:19:38;31.10;;;13.27;;
83895;SDS011;74045;42.812;74.638;2024-03-02T11:22:05;50.75;;;20.40;;
83895;SDS011;74045;42.812;74.638;2024-03-02T11:24:32;40.83;;;16.83;;
83895;SDS011;74045;42.812;74.638;2024-03-02T11:26:59;39.60;;;15.82;;
83895;SDS011;74045;42.812;74.638;2024-03-02T11:32:05;40.63;;;17.10;;
83895;SDS011;74045;42.812;74.638;2024-03-02T11:34:32;42.95;;;17.05;;
83895;SDS011;74045;42.812;74.638;2024-03-02T11:37:03;46.13;;;17.70;;
83895;SDS011;74045;42.812;74.638;2024-03-02T11:39:29;46.58;;;16.02;;
83895;SDS011;74045;42.812;74.638;2024-03-02T11:41:58;40.53;;;14.32;;
83895;SDS011;74045;42.812;74.638;2024-03-02T11:44:27;38.67;;;15.07;;
83895;SDS011;74045;42.812;74.638;2024-03-02T11:46:59;44.45;;;17.75;;
83895;SDS011;74045;42.812;74.638;2024-03-02T11:52:20;49.30;;;18.63;;
83895;SDS011;74045;42.812;74.638;2024-03-02T11:54:48;53.83;;;20.05;;
83895;SDS011;74045;42.812;74.638;2024-03-02T11:57:19;53.20;;;19.35;;
83895;SDS011;74045;42.812;74.638;2024-03-02T11:59:48;56.53;;;20.45;;
83895;SDS011;74045;42.812;74.638;2024-03-02T12:02:21;50.67;;;19.48;;
83895;SDS011;74045;42.812;74.638;2024-03-02T12:04:47;50.53;;;18.73;;
83895;SDS011;74045;42.812;74.638;2024-03-02T12:07:21;49.88;;;20.02;;
83895;SDS011;74045;42.812;74.638;2024-03-02T12:09:48;51.03;;;19.48;;
83895;SDS011;74045;42.812;74.638;2024-03-02T12:14:52;53.75;;;17.80;;
83895;SDS011;74045;42.812;74.638;2024-03-02T12:17:21;71.88;;;24.02;;
83895;SDS011;74045;42.812;74.638;2024-03-02T12:19:47;55.80;;;19.60;;
83895;SDS011;74045;42.812;74.638;2024-03-02T12:22:14;55.85;;;20.38;;
83895;SDS011;74045;42.812;74.638;2024-03-02T12:24:41;57.33;;;20.35;;
83895;SDS011;74045;42.812;74.638;2024-03-02T12:27:07;54.92;;;21.85;;
83895;SDS011;74045;42.812;74.638;2024-03-02T12:29:33;56.95;;;21.02;;
83895;SDS011;74045;42.812;74.638;2024-03-02T12:31:59;58.63;;;21.70;;
83895;SDS011;74045;42.812;74.638;2024-03-02T12:34:29;56.97;;;20.90;;
83895;SDS011;74045;42.812;74.638;2024-03-02T12:36:58;62.70;;;22.13;;
83895;SDS011;74045;42.812;74.638;2024-03-02T12:39:24;57.40;;;21.33;;
83895;SDS011;74045;42.812;74.638;2024-03-02T12:41:50;53.92;;;21.63;;
83895;SDS011;74045;42.812;74.638;2024-03-02T12:44:19;58.45;;;20.25;;
83895;SDS011;74045;42.812;74.638;2024-03-02T12:46:45;59.28;;;22.20;;
83895;SDS011;74045;42.812;74.638;2024-03-02T12:49:12;62.95;;;20.38;;
83895;SDS011;74045;42.812;74.638;2024-03-02T12:51:41;55.30;;;20.75;;
83895;SDS011;74045;42.812;74.638;2024-03-02T12:54:08;56.20;;;19.90;;
83895;SDS011;74045;42.812;74.638;2024-03-02T12:56:35;51.10;;;18.20;;
83895;SDS011;74045;42.812;74.638;2024-03-02T12:59:02;62.35;;;19.13;;
83895;SDS011;74045;42.812;74.638;2024-03-02T13:01:29;58.17;;;19.73;;
83895;SDS011;74045;42.812;74.638;2024-03-02T13:03:55;58.00;;;20.35;;
83895;SDS011;74045;42.812;74.638;2024-03-02T13:06:23;57.28;;;22.52;;
83895;SDS011;74045;42.812;74.638;2024-03-02T13:08:49;62.80;;;21.98;;
83895;SDS011;74045;42.812;74.638;2024-03-02T13:11:15;58.45;;;22.58;;
83895;SDS011;74045;42.812;74.638;2024-03-02T13:13:42;63.95;;;23.60;;
83895;SDS011;74045;42.812;74.638;2024-03-02T13:16:12;59.17;;;22.98;;
83895;SDS011;74045;42.812;74.638;2024-03-02T13:18:39;66.25;;;26.13;;
83895;SDS011;74045;42.812;74.638;2024-03-02T13:21:08;64.82;;;23.63;;
83895;SDS011;74045;42.812;74.638;2024-03-02T13:23:34;74.97;;;27.70;;
83895;SDS011;74045;42.812;74.638;2024-03-02T13:26:00;79.30;;;26.88;;
83895;SDS011;74045;42.812;74.638;2024-03-02T13:28:26;76.35;;;26.80;;
83895;SDS011;74045;42.812;74.638;2024-03-02T13:30:52;72.20;;;25.48;;
83895;SDS011;74045;42.812;74.638;2024-03-02T13:33:18;64.95;;;23.10;;
83895;SDS011;74045;42.812;74.638;2024-03-02T13:35:49;56.90;;;21.73;;
83895;SDS011;74045;42.812;74.638;2024-03-02T13:38:19;63.25;;;23.63;;
83895;SDS011;74045;42.812;74.638;2024-03-02T13:40:45;67.20;;;23.13;;
83895;SDS011;74045;42.812;74.638;2024-03-02T13:43:16;59.90;;;20.83;;
83895;SDS011;74045;42.812;74.638;2024-03-02T13:45:42;57.08;;;21.17;;
83895;SDS011;74045;42.812;74.638;2024-03-02T13:48:08;59.67;;;22.65;;
83895;SDS011;74045;42.812;74.638;2024-03-02T13:50:33;66.28;;;21.98;;
83895;SDS011;74045;42.812;74.638;2024-03-02T13:52:59;62.28;;;22.95;;
83895;SDS011;74045;42.812;74.638;2024-03-02T13:55:25;54.42;;;20.83;;
83895;SDS011;74045;42.812;74.638;2024-03-02T13:57:50;60.22;;;23.33;;
83895;SDS011;74045;42.812;74.638;2024-03-02T14:00:17;62.25;;;23.17;;
83895;SDS011;74045;42.812;74.638;2024-03-02T14:02:45;66.88;;;23.85;;
83895;SDS011;74045;42.812;74.638;2024-03-02T14:05:10;72.15;;;24.17;;
83895;SDS011;74045;42.812;74.638;2024-03-02T14:07:40;68.65;;;24.83;;
83895;SDS011;74045;42.812;74.638;2024-03-02T14:10:07;61.08;;;23.65;;
83895;SDS011;74045;42.812;74.638;2024-03-02T14:12:33;61.63;;;24.48;;
83895;SDS011;74045;42.812;74.638;2024-03-02T14:14:58;63.42;;;25.50;;
83895;SDS011;74045;42.812;74.638;2024-03-02T14:17:27;59.70;;;23.98;;
83895;SDS011;74045;42.812;74.638;2024-03-02T14:19:53;67.55;;;24.55;;
83895;SDS011;74045;42.812;74.638;2024-03-02T14:22:19;68.72;;;24.40;;
83895;SDS011;74045;42.812;74.638;2024-03-02T14:24:45;61.80;;;22.92;;
83895;SDS011;74045;42.812;74.638;2024-03-02T14:27:11;64.72;;;23.60;;